Time;durP1;ratioP1;P1;durP2;ratioP2;P2;SDS_P1;SDS_P2;PMS_P1;PMS_P2;Temp;Humidity;BMP_temperature;BMP_pressure;BME280_temperature;BME280_humidity;BME280_pressure;Samples;Min_cycle;Max_cycle;Signal;HPM_P1;HPM_P2
2023/03/20 00:00:25;;;;;;;25.33;4.85;;;13.90;89.60;;;;;;5065817;28;20018;-54
2023/03/20 00:02:51;;;;;;;14.80;3.88;;;13.90;89.60;;;;;;5064097;28;20036;-54
2023/03/20 00:05:21;;;;;;;16.92;3.97;;;13.80;90.10;;;;;;5064349;28;20052;-54
2023/03/20 00:07:48;;;;;;;13.57;3.92;;;13.80;89.70;;;;;;5065574;28;20473;-54
2023/03/20 00:10:14;;;;;;;22.17;4.10;;;13.80;89.70;;;;;;5065611;28;20040;-54
2023/03/20 00:12:40;;;;;;;14.48;3.55;;;13.80;89.70;;;;;;5065644;28;20113;-54
2023/03/20 00:15:07;;;;;;;17.15;4.00;;;13.80;89.70;;;;;;5047228;28;20361;-54
2023/03/20 00:17:32;;;;;;;16.85;4.07;;;13.80;89.70;;;;;;5047674;28;20043;-57
2023/03/20 00:19:58;;;;;;;26.00;3.50;;;13.80;89.60;;;;;;5047559;28;20045;-57
2023/03/20 00:22:23;;;;;;;11.57;3.63;;;13.80;89.60;;;;;;5065315;28;20036;-57
2023/03/20 00:24:49;;;;;;;14.38;3.08;;;13.70;89.60;;;;;;5031033;28;20017;-57
2023/03/20 00:27:15;;;;;;;17.63;3.90;;;13.70;89.60;;;;;;5065445;28;20199;-57
2023/03/20 00:29:41;;;;;;;12.65;3.65;;;13.70;89.70;;;;;;5047220;28;20025;-57
2023/03/20 00:32:13;;;;;;;12.88;3.28;;;13.70;89.70;;;;;;5030994;28;20033;-57
2023/03/20 00:34:38;;;;;;;16.98;3.72;;;13.70;89.70;;;;;;5063569;28;20092;-57
2023/03/20 00:37:04;;;;;;;14.27;3.50;;;13.70;90.10;;;;;;5047391;28;20083;-57
2023/03/20 00:39:30;;;;;;;11.98;3.60;;;13.70;89.80;;;;;;5047164;28;20017;-57
2023/03/20 00:42:00;;;;;;;13.27;3.17;;;13.60;89.70;;;;;;5063674;28;20040;-57
2023/03/20 00:44:36;;;;;;;12.48;3.42;;;13.60;89.80;;;;;;5047782;28;20047;-57
2023/03/20 00:47:22;;;;;;;13.13;3.53;;;13.60;89.70;;;;;;5047408;28;20041;-57
2023/03/20 00:49:49;;;;;;;10.63;3.47;;;13.60;89.70;;;;;;5047094;28;20028;-57
2023/03/20 00:52:16;;;;;;;18.25;3.65;;;13.60;89.70;;;;;;5063777;28;20048;-57
2023/03/20 00:54:41;;;;;;;17.38;3.58;;;13.60;89.70;;;;;;5047031;28;20036;-57
2023/03/20 00:57:24;;;;;;;15.25;3.95;;;13.60;89.80;;;;;;5063824;28;20017;-57
2023/03/20 00:59:55;;;;;;;13.18;3.53;;;13.60;89.70;;;;;;5049160;28;20025;-57
2023/03/20 01:02:22;;;;;;;10.32;2.75;;;13.60;89.70;;;;;;5064818;28;20029;-57
2023/03/20 01:04:48;;;;;;;13.48;3.00;;;13.60;89.70;;;;;;5063596;28;20057;-57
2023/03/20 01:07:14;;;;;;;11.32;3.20;;;13.60;89.70;;;;;;5065010;28;20326;-57
2023/03/20 01:09:40;;;;;;;13.90;3.60;;;13.60;89.80;;;;;;5064682;28;20033;-57
2023/03/20 01:12:07;;;;;;;7.07;2.60;;;13.50;90.20;;;;;;5063687;28;20405;-57
2023/03/20 01:14:33;;;;;;;10.77;2.83;;;13.50;89.80;;;;;;5064703;28;20045;-57
2023/03/20 01:16:58;;;;;;;14.57;3.92;;;13.50;89.80;;;;;;5063668;28;20108;-57
2023/03/20 01:19:24;;;;;;;7.47;2.50;;;13.50;89.80;;;;;;5063618;28;20104;-57
2023/03/20 01:21:50;;;;;;;6.90;2.78;;;13.50;89.90;;;;;;5063310;28;20032;-57
2023/03/20 01:24:15;;;;;;;12.55;3.25;;;13.50;89.90;;;;;;5064892;28;20063;-57
2023/03/20 01:26:42;;;;;;;9.95;3.17;;;13.40;89.90;;;;;;5046994;28;20037;-57
2023/03/20 01:29:26;;;;;;;14.45;3.67;;;13.50;90.00;;;;;;5066602;28;20025;-57
2023/03/20 01:31:52;;;;;;;14.23;2.85;;;13.40;90.00;;;;;;5068914;28;20033;-56
2023/03/20 01:34:18;;;;;;;11.18;2.83;;;13.40;90.00;;;;;;5050548;28;20056;-57
2023/03/20 01:36:51;;;;;;;9.85;2.85;;;13.40;90.00;;;;;;5067170;28;20481;-56
2023/03/20 01:39:20;;;;;;;14.57;3.38;;;13.40;90.00;;;;;;5067248;28;20100;-57
2023/03/20 01:41:46;;;;;;;10.25;3.03;;;13.40;90.10;;;;;;5050855;28;20021;-57
2023/03/20 01:44:33;;;;;;;10.75;2.63;;;13.40;90.00;;;;;;5050715;28;20085;-57
2023/03/20 01:46:59;;;;;;;9.57;3.10;;;13.40;90.00;;;;;;5066900;28;20064;-57
2023/03/20 01:49:25;;;;;;;13.73;3.53;;;13.30;90.10;;;;;;5050292;28;20472;-57
2023/03/20 01:51:51;;;;;;;10.45;3.03;;;13.30;90.00;;;;;;5068134;28;20041;-57
2023/03/20 01:54:30;;;;;;;8.02;3.08;;;13.30;90.00;;;;;;5066644;28;20074;-57
2023/03/20 01:57:10;;;;;;;11.05;2.90;;;13.30;90.10;;;;;;5050890;28;20025;-57
2023/03/20 01:59:46;;;;;;;11.00;2.90;;;13.30;90.10;;;;;;5066720;28;20036;-57
2023/03/20 02:02:18;;;;;;;8.65;2.70;;;13.30;90.10;;;;;;5051623;28;20081;-57
2023/03/20 02:04:45;;;;;;;9.90;2.65;;;13.30;90.10;;;;;;5066743;28;20037;-57
2023/03/20 02:07:11;;;;;;;6.30;2.65;;;13.30;90.10;;;;;;5033409;28;20029;-56
2023/03/20 02:09:37;;;;;;;10.38;2.85;;;13.20;90.10;;;;;;5050099;28;20032;-57
2023/03/20 02:12:02;;;;;;;9.73;2.75;;;13.20;90.10;;;;;;5066664;28;20036;-57
2023/03/20 02:14:28;;;;;;;6.55;2.88;;;13.20;90.10;;;;;;5049670;28;20112;-57
2023/03/20 02:16:54;;;;;;;6.00;2.47;;;13.20;90.20;;;;;;5050124;28;20029;-57
2023/03/20 02:19:42;;;;;;;7.63;2.80;;;13.20;90.10;;;;;;5033032;28;20024;-57
2023/03/20 02:22:20;;;;;;;9.75;3.03;;;13.20;90.10;;;;;;5066646;28;20025;-57
2023/03/20 02:25:14;;;;;;;8.40;2.63;;;13.20;90.10;;;;;;5067429;28;20028;-57
2023/03/20 02:28:05;;;;;;;12.70;2.80;;;13.20;90.10;;;;;;5066449;28;20057;-57
2023/03/20 02:30:42;;;;;;;12.13;2.88;;;13.20;90.10;;;;;;5067336;28;20081;-57
2023/03/20 02:33:27;;;;;;;7.78;2.60;;;13.20;90.10;;;;;;5067331;28;20047;-57
2023/03/20 02:35:58;;;;;;;7.10;2.75;;;13.20;90.10;;;;;;5067489;28;20017;-57
2023/03/20 02:38:42;;;;;;;5.57;2.60;;;13.20;90.10;;;;;;5067534;28;20097;-57
2023/03/20 02:41:08;;;;;;;6.57;2.58;;;13.20;90.10;;;;;;5067548;28;20062;-57
2023/03/20 02:43:47;;;;;;;6.22;2.67;;;13.20;90.10;;;;;;5067382;28;20053;-57
2023/03/20 02:46:30;;;;;;;8.50;2.70;;;13.20;90.10;;;;;;5049110;28;20032;-57
2023/03/20 02:49:20;;;;;;;7.60;2.85;;;13.20;90.20;;;;;;5034418;28;20461;-57
2023/03/20 02:52:23;;;;;;;8.30;2.55;;;13.10;90.10;;;;;;5042556;28;20056;-56
2023/03/20 02:54:58;;;;;;;6.15;2.80;;;13.10;90.20;;;;;;5064974;28;20037;-57
2023/03/20 02:57:44;;;;;;;5.53;2.58;;;13.10;90.20;;;;;;5065444;28;20108;-57
2023/03/20 03:00:16;;;;;;;8.27;2.70;;;13.10;90.20;;;;;;5065685;28;20033;-57
2023/03/20 03:02:46;;;;;;;9.75;2.80;;;13.10;90.20;;;;;;5066698;28;20059;-57
2023/03/20 03:05:14;;;;;;;7.28;2.70;;;13.10;90.20;;;;;;5049255;28;20033;-57
2023/03/20 03:07:41;;;;;;;10.98;3.15;;;13.10;90.20;;;;;;5049078;28;20025;-57
2023/03/20 03:10:10;;;;;;;6.53;2.17;;;13.10;90.60;;;;;;5048652;28;20033;-57
2023/03/20 03:12:37;;;;;;;8.13;2.50;;;13.00;90.30;;;;;;5032650;28;20101;-57
2023/03/20 03:15:12;;;;;;;6.60;2.60;;;13.00;90.30;;;;;;5065358;28;20132;-57
2023/03/20 03:17:37;;;;;;;4.73;2.50;;;13.10;90.30;;;;;;5033319;28;20070;-57
2023/03/20 03:20:11;;;;;;;6.63;2.55;;;13.10;90.30;;;;;;5065381;28;20084;-57
2023/03/20 03:22:37;;;;;;;5.85;2.67;;;13.00;90.20;;;;;;5065195;28;20098;-57
2023/03/20 03:25:03;;;;;;;9.15;2.78;;;13.00;90.20;;;;;;5048475;28;20072;-57
2023/03/20 03:27:37;;;;;;;7.32;2.55;;;13.00;90.30;;;;;;5065163;28;20056;-57
2023/03/20 03:30:24;;;;;;;4.07;2.17;;;13.00;90.30;;;;;;5065012;28;20208;-57
2023/03/20 03:33:01;;;;;;;4.93;2.63;;;13.00;90.30;;;;;;5065169;28;20033;-57
2023/03/20 03:35:26;;;;;;;5.50;2.40;;;13.00;90.30;;;;;;5064954;28;20120;-56
2023/03/20 03:38:01;;;;;;;7.95;2.75;;;13.00;90.30;;;;;;5048442;28;20066;-57
2023/03/20 03:40:58;;;;;;;7.13;2.38;;;13.00;90.30;;;;;;5031824;28;20025;-57
2023/03/20 03:43:30;;;;;;;5.30;2.53;;;13.00;90.50;;;;;;5053796;28;20110;-57
2023/03/20 03:46:01;;;;;;;6.43;2.65;;;13.00;90.30;;;;;;5065174;28;20033;-57
2023/03/20 03:48:32;;;;;;;7.68;2.55;;;12.90;90.30;;;;;;5064771;28;20035;-56
2023/03/20 03:51:04;;;;;;;10.10;2.67;;;13.00;90.30;;;;;;5064231;28;20040;-57
2023/03/20 03:53:33;;;;;;;6.00;2.60;;;13.00;90.30;;;;;;5048811;28;20029;-57
2023/03/20 03:56:00;;;;;;;6.20;2.42;;;12.90;90.40;;;;;;5064428;28;20175;-57
2023/03/20 03:58:32;;;;;;;6.55;2.45;;;12.90;90.40;;;;;;5048196;28;20112;-57
2023/03/20 04:00:58;;;;;;;4.20;2.40;;;12.90;90.40;;;;;;5048109;28;20089;-57
2023/03/20 04:03:27;;;;;;;7.55;2.80;;;12.90;90.30;;;;;;5048139;28;20057;-57
2023/03/20 04:05:53;;;;;;;6.15;2.47;;;12.90;90.40;;;;;;5048476;28;20037;-57
2023/03/20 04:08:19;;;;;;;4.72;2.20;;;12.90;90.40;;;;;;5047791;28;20108;-57
2023/03/20 04:10:45;;;;;;;5.72;2.17;;;12.90;90.30;;;;;;5064423;28;20021;-57
2023/03/20 04:13:10;;;;;;;6.70;2.30;;;12.90;90.40;;;;;;5065615;28;20468;-56
2023/03/20 04:15:37;;;;;;;4.35;2.40;;;12.90;90.40;;;;;;5064111;28;20040;-57
2023/03/20 04:18:03;;;;;;;3.80;1.90;;;12.90;90.40;;;;;;5064471;28;20029;-57
2023/03/20 04:20:28;;;;;;;5.00;2.40;;;12.80;90.40;;;;;;5065261;28;20029;-57
2023/03/20 04:22:54;;;;;;;6.15;2.80;;;12.80;90.40;;;;;;5065541;28;20489;-57
2023/03/20 04:25:21;;;;;;;3.22;2.25;;;12.80;90.40;;;;;;5065455;28;20025;-57
2023/03/20 04:27:47;;;;;;;4.88;2.42;;;12.80;90.40;;;;;;5064161;28;20029;-57
2023/03/20 04:30:13;;;;;;;4.20;1.90;;;12.80;90.40;;;;;;5065398;28;20067;-57
2023/03/20 04:32:38;;;;;;;3.90;2.28;;;12.80;90.40;;;;;;5064118;28;20033;-57
2023/03/20 04:35:05;;;;;;;4.72;2.40;;;12.80;90.50;;;;;;5064001;28;20029;-57
2023/03/20 04:37:30;;;;;;;5.18;2.35;;;12.80;90.40;;;;;;5065337;28;20029;-57
2023/03/20 04:39:56;;;;;;;9.13;2.28;;;12.80;90.50;;;;;;5047380;28;20025;-57
2023/03/20 04:42:21;;;;;;;6.22;2.13;;;12.80;90.40;;;;;;5064133;28;20036;-57
2023/03/20 04:44:47;;;;;;;4.85;1.92;;;12.80;90.50;;;;;;5065113;28;20029;-57
2023/03/20 04:47:12;;;;;;;4.72;2.28;;;12.80;90.50;;;;;;5065254;28;20044;-57
2023/03/20 04:49:38;;;;;;;4.32;1.98;;;12.70;90.50;;;;;;5063761;28;20071;-57
2023/03/20 04:52:03;;;;;;;5.13;2.55;;;12.80;90.60;;;;;;5063629;28;20037;-57
2023/03/20 04:54:29;;;;;;;4.05;2.38;;;12.70;90.50;;;;;;5063722;28;20032;-57
2023/03/20 04:56:55;;;;;;;3.45;2.05;;;12.70;90.50;;;;;;5065284;28;20029;-57
2023/03/20 04:59:20;;;;;;;4.95;1.80;;;12.70;90.50;;;;;;5064836;28;20029;-57
2023/03/20 05:01:46;;;;;;;3.28;1.95;;;12.70;90.50;;;;;;5065084;28;20028;-57
2023/03/20 05:04:11;;;;;;;3.47;2.03;;;12.70;90.80;;;;;;5067286;28;20050;-57
2023/03/20 05:06:37;;;;;;;6.90;2.53;;;12.70;90.50;;;;;;5067804;28;20032;-57
2023/03/20 05:09:03;;;;;;;4.40;2.63;;;12.70;90.80;;;;;;5069093;28;20051;-57
2023/03/20 05:11:28;;;;;;;6.10;2.60;;;12.70;90.50;;;;;;5067631;28;20028;-57
2023/03/20 05:13:54;;;;;;;4.20;2.50;;;12.70;90.50;;;;;;5067772;28;20028;-57
2023/03/20 05:16:19;;;;;;;4.70;2.50;;;12.70;90.60;;;;;;5069023;28;20033;-57
2023/03/20 05:18:45;;;;;;;5.45;2.25;;;12.70;90.50;;;;;;5067372;28;20058;-57
2023/03/20 05:21:11;;;;;;;4.25;2.13;;;12.70;90.80;;;;;;5067473;28;20021;-57
2023/03/20 05:23:36;;;;;;;4.05;2.40;;;12.60;90.50;;;;;;5068743;28;20048;-57
2023/03/20 05:26:02;;;;;;;6.22;2.22;;;12.60;90.50;;;;;;5067273;28;20075;-57
2023/03/20 05:28:27;;;;;;;3.35;2.17;;;12.60;90.60;;;;;;5067462;28;20029;-56
2023/03/20 05:30:53;;;;;;;4.03;2.00;;;12.60;90.70;;;;;;5067365;28;20453;-57
2023/03/20 05:33:19;;;;;;;5.55;2.20;;;12.60;90.70;;;;;;5050661;28;20055;-56
2023/03/20 05:35:45;;;;;;;4.38;2.08;;;12.60;90.60;;;;;;5068519;28;20039;-57
2023/03/20 05:38:10;;;;;;;5.32;2.83;;;12.60;90.60;;;;;;5068572;28;20035;-57
2023/03/20 05:40:36;;;;;;;5.15;2.08;;;12.60;90.60;;;;;;5050480;28;20025;-57
2023/03/20 05:43:01;;;;;;;8.35;2.22;;;12.60;90.60;;;;;;5068657;28;20025;-57
2023/03/20 05:45:27;;;;;;;3.42;2.15;;;12.50;90.60;;;;;;5066949;28;20048;-57
2023/03/20 05:47:53;;;;;;;8.48;2.70;;;12.50;90.60;;;;;;5067201;28;20109;-57
2023/03/20 05:50:19;;;;;;;6.38;2.60;;;12.50;90.60;;;;;;5066972;28;20025;-57
2023/03/20 05:52:48;;;;;;;4.38;1.88;;;12.50;90.60;;;;;;5050297;28;20139;-57
2023/03/20 05:55:14;;;;;;;4.03;2.22;;;12.50;90.60;;;;;;5066957;28;20059;-57
2023/03/20 05:57:39;;;;;;;4.18;2.38;;;12.50;90.60;;;;;;5066812;28;20049;-57
2023/03/20 06:00:07;;;;;;;4.20;2.17;;;12.50;90.60;;;;;;5066836;28;20025;-57
2023/03/20 06:02:33;;;;;;;6.68;2.70;;;12.50;90.60;;;;;;5066581;28;20040;-57
2023/03/20 06:04:58;;;;;;;5.68;2.53;;;12.50;90.60;;;;;;5049739;28;20029;-57
2023/03/20 06:07:24;;;;;;;8.07;2.40;;;12.50;90.50;;;;;;5068035;28;20055;-57
2023/03/20 06:09:50;;;;;;;8.27;2.40;;;12.40;90.60;;;;;;5049770;28;20048;-57
2023/03/20 06:12:16;;;;;;;6.05;2.25;;;12.40;90.90;;;;;;5067817;28;20044;-57
2023/03/20 06:14:42;;;;;;;4.97;2.30;;;12.40;90.60;;;;;;5067227;28;20116;-57
2023/03/20 06:17:07;;;;;;;4.28;2.38;;;12.40;90.70;;;;;;5067794;28;20029;-56
2023/03/20 06:19:33;;;;;;;7.72;2.35;;;12.40;90.70;;;;;;5066769;28;20021;-57
2023/03/20 06:21:58;;;;;;;3.75;2.53;;;12.40;90.70;;;;;;5067776;28;20059;-57
2023/03/20 06:24:24;;;;;;;4.80;2.50;;;12.40;90.70;;;;;;5049572;28;20021;-57
2023/03/20 06:26:50;;;;;;;5.03;2.28;;;12.40;90.70;;;;;;5067553;28;20048;-56
2023/03/20 06:29:15;;;;;;;4.90;2.35;;;12.40;90.70;;;;;;5066082;28;20063;-57
2023/03/20 06:31:41;;;;;;;6.13;2.20;;;12.40;90.70;;;;;;5067286;28;20039;-57
2023/03/20 06:34:06;;;;;;;3.45;2.30;;;12.40;90.70;;;;;;5067377;28;20031;-57
2023/03/20 06:36:32;;;;;;;4.22;2.30;;;12.30;90.60;;;;;;5067185;28;20381;-57
2023/03/20 06:38:58;;;;;;;6.15;2.35;;;12.30;90.60;;;;;;5067339;28;20028;-57
2023/03/20 06:41:23;;;;;;;3.15;2.10;;;12.30;90.70;;;;;;5049476;28;20408;-57
2023/03/20 06:43:49;;;;;;;3.97;2.33;;;12.30;90.70;;;;;;5065988;28;20060;-56
2023/03/20 06:46:14;;;;;;;4.47;2.03;;;12.30;90.70;;;;;;5065910;28;20029;-57
2023/03/20 06:48:40;;;;;;;4.82;2.50;;;12.30;90.70;;;;;;5067532;28;20041;-56
2023/03/20 06:51:06;;;;;;;3.05;2.20;;;12.30;90.70;;;;;;5065587;28;20037;-56
2023/03/20 06:53:32;;;;;;;4.30;2.20;;;12.30;90.70;;;;;;5067114;28;20036;-57
2023/03/20 06:55:58;;;;;;;2.60;1.90;;;12.30;90.70;;;;;;5066741;28;20035;-57
2023/03/20 06:58:23;;;;;;;9.95;2.10;;;12.30;90.70;;;;;;5066882;28;20377;-56
2023/03/20 07:00:50;;;;;;;3.88;2.00;;;12.20;90.60;;;;;;5066453;28;20025;-57
2023/03/20 07:03:16;;;;;;;5.68;2.53;;;12.30;90.60;;;;;;5065645;28;20044;-56
2023/03/20 07:05:42;;;;;;;2.95;1.80;;;12.30;90.60;;;;;;5066576;28;20037;-57
2023/03/20 07:08:07;;;;;;;5.00;2.20;;;12.30;90.70;;;;;;5065235;28;20025;-57
2023/03/20 07:10:33;;;;;;;3.85;2.10;;;12.20;90.60;;;;;;5065131;28;20033;-57
2023/03/20 07:12:59;;;;;;;4.82;2.35;;;12.30;90.60;;;;;;5064912;28;20087;-57
2023/03/20 07:15:26;;;;;;;4.13;2.10;;;12.30;90.70;;;;;;5048359;28;20276;-57
2023/03/20 07:17:52;;;;;;;3.03;2.05;;;12.20;90.60;;;;;;5032070;28;20021;-56
2023/03/20 07:20:17;;;;;;;3.97;2.10;;;12.20;90.70;;;;;;5047933;28;20025;-56
2023/03/20 07:22:43;;;;;;;3.70;1.90;;;12.20;90.70;;;;;;5064787;28;20040;-57
2023/03/20 07:25:09;;;;;;;3.72;2.40;;;12.20;90.70;;;;;;5047090;28;20033;-57
2023/03/20 07:27:35;;;;;;;4.30;2.10;;;12.20;90.70;;;;;;5065808;28;20465;-57
2023/03/20 07:30:01;;;;;;;4.30;1.67;;;12.20;90.70;;;;;;5065932;28;20029;-56
2023/03/20 07:32:26;;;;;;;3.63;1.95;;;12.20;90.70;;;;;;5064896;28;20029;-57
2023/03/20 07:34:52;;;;;;;2.60;1.67;;;12.20;90.70;;;;;;5064518;28;20053;-57
2023/03/20 07:37:18;;;;;;;4.10;2.25;;;12.20;90.70;;;;;;5047813;28;20035;-57
2023/03/20 07:39:43;;;;;;;5.85;1.80;;;12.30;90.70;;;;;;5064212;28;20453;-57
2023/03/20 07:42:09;;;;;;;13.20;2.40;;;12.20;90.60;;;;;;5064205;28;20416;-57
2023/03/20 07:44:34;;;;;;;17.35;3.13;;;12.30;90.70;;;;;;5047935;28;20035;-57
2023/03/20 07:47:00;;;;;;;40.50;4.10;;;12.20;90.60;;;;;;5065987;28;20052;-57
2023/03/20 07:49:26;;;;;;;30.73;3.75;;;12.30;90.70;;;;;;5064418;28;20108;-57
2023/03/20 07:51:53;;;;;;;14.50;2.58;;;12.30;90.60;;;;;;5063829;28;20037;-57
2023/03/20 07:54:19;;;;;;;12.43;2.83;;;12.30;90.70;;;;;;5055869;28;20029;-57
2023/03/20 07:56:44;;;;;;;14.85;2.88;;;12.30;90.70;;;;;;5043793;28;20029;-57
2023/03/20 07:59:11;;;;;;;18.35;2.78;;;12.30;90.70;;;;;;5045489;28;20022;-57
2023/03/20 08:01:37;;;;;;;20.23;3.42;;;12.30;90.60;;;;;;5027058;28;20056;-57
2023/03/20 08:04:02;;;;;;;14.93;2.58;;;12.30;90.70;;;;;;5045497;28;20021;-57
2023/03/20 08:06:28;;;;;;;15.98;2.70;;;12.30;90.70;;;;;;5045355;28;20105;-57
2023/03/20 08:08:53;;;;;;;9.60;2.50;;;12.30;90.60;;;;;;5043939;28;20456;-57
2023/03/20 08:11:19;;;;;;;8.48;2.38;;;12.30;90.60;;;;;;5027359;28;20029;-57
2023/03/20 08:13:45;;;;;;;11.68;2.83;;;12.40;90.70;;;;;;5043822;28;20036;-57
2023/03/20 08:16:10;;;;;;;10.73;2.10;;;12.30;90.60;;;;;;5043922;28;20504;-57
2023/03/20 08:18:36;;;;;;;12.25;2.58;;;12.30;90.60;;;;;;5043919;28;20115;-57
2023/03/20 08:21:02;;;;;;;10.95;2.28;;;12.30;90.50;;;;;;5045457;28;20034;-57
2023/03/20 08:23:27;;;;;;;8.20;2.50;;;12.30;90.50;;;;;;5043710;28;20467;-57
2023/03/20 08:25:53;;;;;;;5.38;2.10;;;12.40;90.50;;;;;;5043811;28;20121;-57
2023/03/20 08:28:19;;;;;;;8.57;2.30;;;12.40;90.50;;;;;;5043687;28;20033;-56
2023/03/20 08:30:44;;;;;;;9.55;2.30;;;12.40;90.50;;;;;;5045016;28;20022;-57
2023/03/20 08:33:10;;;;;;;7.50;2.17;;;12.40;90.50;;;;;;5043253;28;20029;-57
2023/03/20 08:35:36;;;;;;;7.55;2.47;;;12.40;90.50;;;;;;5043295;28;20036;-57
2023/03/20 08:38:01;;;;;;;13.60;2.72;;;12.40;90.50;;;;;;5047118;28;20027;-57
2023/03/20 08:40:27;;;;;;;11.02;2.17;;;12.40;90.50;;;;;;5046742;28;20350;-57
2023/03/20 08:42:52;;;;;;;20.48;2.85;;;12.40;90.50;;;;;;5043334;28;20022;-57
2023/03/20 08:45:18;;;;;;;12.32;2.50;;;12.40;90.50;;;;;;5042765;28;20033;-57
2023/03/20 08:47:47;;;;;;;10.30;2.35;;;12.50;90.50;;;;;;5045575;28;20034;-57
2023/03/20 08:50:13;;;;;;;11.70;2.15;;;12.50;90.40;;;;;;5043463;28;20034;-57
2023/03/20 08:52:42;;;;;;;8.45;1.63;;;12.50;90.40;;;;;;5043526;28;20442;-57
2023/03/20 08:55:09;;;;;;;5.82;1.90;;;12.50;90.40;;;;;;5044550;28;20080;-57
2023/03/20 08:57:36;;;;;;;9.18;1.70;;;12.50;90.40;;;;;;5026779;28;20045;-56
2023/03/20 09:00:03;;;;;;;10.32;2.13;;;12.50;90.40;;;;;;5041728;28;20026;-57
2023/03/20 09:02:28;;;;;;;11.43;2.17;;;12.50;90.40;;;;;;5044194;28;20036;-57
2023/03/20 09:04:54;;;;;;;10.15;2.17;;;12.60;90.40;;;;;;5046653;28;20030;-57
2023/03/20 09:07:20;;;;;;;4.97;1.45;;;12.60;90.40;;;;;;5042810;28;20060;-57
2023/03/20 09:09:46;;;;;;;12.52;2.22;;;12.60;90.30;;;;;;5044201;28;20064;-57
2023/03/20 09:12:12;;;;;;;9.77;1.85;;;12.60;90.30;;;;;;5042950;28;20056;-57
2023/03/20 09:14:37;;;;;;;7.35;1.90;;;12.60;90.30;;;;;;5048223;28;20044;-57
2023/03/20 09:17:03;;;;;;;5.47;1.50;;;12.60;90.30;;;;;;5042553;28;20495;-57
2023/03/20 09:19:29;;;;;;;8.05;1.60;;;12.70;90.30;;;;;;5044059;28;20465;-57
2023/03/20 09:21:54;;;;;;;11.35;2.00;;;12.70;90.30;;;;;;5044000;28;20108;-56
2023/03/20 09:24:20;;;;;;;16.35;2.55;;;12.70;90.20;;;;;;5042535;28;20028;-57
2023/03/20 09:26:45;;;;;;;10.52;2.33;;;12.70;90.20;;;;;;5043952;28;20093;-57
2023/03/20 09:29:11;;;;;;;9.05;2.53;;;12.80;90.20;;;;;;5043580;28;20026;-57
2023/03/20 09:31:36;;;;;;;14.77;2.30;;;12.80;90.10;;;;;;5026238;28;20033;-57
2023/03/20 09:34:02;;;;;;;11.60;2.17;;;12.90;90.00;;;;;;5052393;28;20033;-57
2023/03/20 09:36:28;;;;;;;15.80;2.00;;;12.90;90.00;;;;;;5026164;28;20458;-57
2023/03/20 09:38:53;;;;;;;11.73;2.35;;;12.90;90.00;;;;;;5009627;28;20371;-57
2023/03/20 09:41:20;;;;;;;12.20;2.35;;;12.90;90.00;;;;;;5043801;28;20029;-59
2023/03/20 09:43:49;;;;;;;17.42;3.20;;;12.90;90.00;;;;;;5042453;28;20044;-59
2023/03/20 09:46:41;;;;;;;17.05;2.58;;;12.90;89.90;;;;;;5043854;28;20064;-59
2023/03/20 09:49:37;;;;;;;12.75;2.88;;;13.00;89.80;;;;;;5036679;28;20037;-59
2023/03/20 09:52:27;;;;;;;20.15;2.63;;;13.00;89.80;;;;;;5025840;28;20049;-59
2023/03/20 09:54:55;;;;;;;25.15;3.20;;;13.00;89.80;;;;;;5039517;28;20111;-59
2023/03/20 09:57:24;;;;;;;24.10;3.58;;;13.10;89.90;;;;;;5029992;28;20025;-59
2023/03/20 09:59:52;;;;;;;21.92;2.70;;;13.10;89.80;;;;;;5044545;28;20035;-57
2023/03/20 10:02:23;;;;;;;29.13;3.65;;;13.10;89.70;;;;;;5029573;28;20394;-56
2023/03/20 10:04:50;;;;;;;18.45;3.22;;;13.10;89.50;;;;;;5010058;28;20029;-57
2023/03/20 10:07:16;;;;;;;14.82;3.40;;;13.20;89.50;;;;;;5059575;28;20041;-57
2023/03/20 10:09:42;;;;;;;28.88;3.70;;;13.20;89.60;;;;;;5062217;28;20117;-57
2023/03/20 10:12:07;;;;;;;138.05;11.93;;;13.20;89.50;;;;;;5029198;28;20021;-56
2023/03/20 10:15:01;;;;;;;58.17;6.70;;;13.20;89.50;;;;;;5047189;28;20033;-57
2023/03/20 10:17:54;;;;;;;22.70;3.20;;;13.30;89.50;;;;;;5046952;28;20022;-57
2023/03/20 10:20:32;;;;;;;20.58;2.97;;;13.30;89.40;;;;;;5065083;28;20033;-57
2023/03/20 10:23:17;;;;;;;20.65;2.88;;;13.40;89.00;;;;;;5045358;28;20029;-57
2023/03/20 10:25:47;;;;;;;29.70;3.77;;;13.40;88.90;;;;;;5025256;28;20091;-57
2023/03/20 10:28:16;;;;;;;67.72;9.27;;;13.40;89.00;;;;;;5045880;28;20264;-56
2023/03/20 10:31:01;;;;;;;37.10;4.07;;;13.50;89.30;;;;;;5044439;28;20095;-57
2023/03/20 10:33:38;;;;;;;19.35;3.03;;;13.50;88.90;;;;;;5045530;28;20029;-56
2023/03/20 10:36:20;;;;;;;19.48;2.83;;;13.60;88.80;;;;;;5046113;28;20033;-57
2023/03/20 10:39:00;;;;;;;22.02;3.65;;;13.60;88.40;;;;;;5045546;28;20021;-57
2023/03/20 10:41:32;;;;;;;27.48;3.80;;;13.70;88.40;;;;;;5045465;28;20025;-57
2023/03/20 10:43:58;;;;;;;34.92;4.53;;;13.70;88.30;;;;;;5045200;28;20029;-56
2023/03/20 10:46:32;;;;;;;42.42;5.00;;;13.80;88.20;;;;;;5045077;28;20029;-56
2023/03/20 10:49:18;;;;;;;47.42;5.97;;;13.80;88.20;;;;;;5028599;28;20056;-57
2023/03/20 10:51:50;;;;;;;38.75;6.13;;;13.80;88.10;;;;;;5045501;28;20391;-56
2023/03/20 10:54:23;;;;;;;40.40;5.35;;;13.90;88.50;;;;;;5045462;28;20026;-56
2023/03/20 10:56:48;;;;;;;34.25;5.03;;;13.90;88.20;;;;;;5045777;28;20029;-56
2023/03/20 10:59:39;;;;;;;88.82;10.65;;;13.90;87.90;;;;;;5045364;28;20044;-57
2023/03/20 11:02:12;;;;;;;85.00;9.73;;;14.00;87.90;;;;;;5045493;28;20029;-56
2023/03/20 11:04:38;;;;;;;93.55;10.65;;;14.00;88.10;;;;;;5045010;28;20037;-56
2023/03/20 11:07:34;;;;;;;59.17;6.53;;;14.10;88.00;;;;;;5046181;28;20025;-57
2023/03/20 11:10:07;;;;;;;41.25;5.60;;;14.10;87.70;;;;;;5057110;28;20041;-56
2023/03/20 11:12:33;;;;;;;52.33;5.72;;;14.10;87.60;;;;;;5046140;28;20037;-56
2023/03/20 11:14:59;;;;;;;54.15;6.95;;;14.10;87.60;;;;;;5044748;28;20052;-57
2023/03/20 11:17:27;;;;;;;42.95;6.15;;;14.20;87.50;;;;;;5044550;28;20029;-56
2023/03/20 11:19:53;;;;;;;55.53;6.30;;;14.20;87.40;;;;;;5044521;28;20158;-57
2023/03/20 11:22:24;;;;;;;88.63;11.88;;;14.30;87.20;;;;;;5044688;28;20124;-57
2023/03/20 11:25:21;;;;;;;114.57;13.10;;;14.30;87.30;;;;;;5045498;28;20029;-55
2023/03/20 11:27:47;;;;;;;113.85;10.27;;;14.40;87.20;;;;;;5045817;28;20112;-56
2023/03/20 11:30:16;;;;;;;129.18;14.57;;;14.40;87.20;;;;;;5044604;28;20030;-57
2023/03/20 11:32:46;;;;;;;67.15;6.80;;;14.50;87.10;;;;;;5043293;28;20037;-56
2023/03/20 11:35:27;;;;;;;50.47;5.90;;;14.50;86.80;;;;;;5026151;28;20493;-56
2023/03/20 11:37:54;;;;;;;45.15;6.20;;;14.60;86.60;;;;;;5026018;28;20029;-56
2023/03/20 11:40:30;;;;;;;44.85;5.13;;;14.60;86.40;;;;;;5041889;28;20029;-57
2023/03/20 11:42:59;;;;;;;36.72;5.28;;;14.60;86.10;;;;;;5041722;28;20040;-56
2023/03/20 11:45:26;;;;;;;44.90;5.03;;;14.70;86.00;;;;;;5041648;28;20216;-57
2023/03/20 11:47:53;;;;;;;46.05;5.25;;;14.70;85.90;;;;;;5025825;28;20053;-57
2023/03/20 11:50:35;;;;;;;29.88;4.38;;;14.70;85.90;;;;;;5042136;28;20080;-56
2023/03/20 11:53:03;;;;;;;23.65;4.63;;;14.80;86.10;;;;;;5043144;28;20099;-57
2023/03/20 11:55:32;;;;;;;39.85;4.82;;;14.80;86.50;;;;;;5043915;28;20048;-56
2023/03/20 11:58:00;;;;;;;26.45;3.80;;;14.80;86.30;;;;;;5043837;28;20049;-57
2023/03/20 12:00:35;;;;;;;30.27;4.47;;;14.80;85.50;;;;;;5043628;28;20104;-56
2023/03/20 12:03:01;;;;;;;31.65;3.83;;;14.90;85.60;;;;;;5043828;28;20342;-56
2023/03/20 12:05:30;;;;;;;30.83;4.15;;;14.90;85.40;;;;;;5042453;28;20048;-57
2023/03/20 12:07:59;;;;;;;21.70;3.08;;;14.90;85.00;;;;;;5027263;28;20040;-57
2023/03/20 12:10:27;;;;;;;24.17;3.47;;;15.00;84.80;;;;;;5043732;28;20030;-56
2023/03/20 12:12:58;;;;;;;22.23;3.60;;;15.00;84.80;;;;;;5041334;28;20041;-56
2023/03/20 12:15:30;;;;;;;37.75;4.20;;;15.00;84.80;;;;;;5041390;28;20034;-57
2023/03/20 12:18:04;;;;;;;29.38;3.70;;;15.10;84.90;;;;;;5040970;28;20029;-57
2023/03/20 12:20:38;;;;;;;38.03;4.38;;;15.10;84.90;;;;;;5039877;28;20029;-57
2023/03/20 12:23:20;;;;;;;29.85;3.15;;;15.10;84.50;;;;;;5039798;28;20037;-57
2023/03/20 12:26:10;;;;;;;19.10;3.00;;;15.10;84.10;;;;;;5039343;28;20022;-57
2023/03/20 12:29:08;;;;;;;31.50;3.67;;;15.20;84.10;;;;;;5039297;28;20037;-56
2023/03/20 12:31:53;;;;;;;36.03;4.53;;;15.20;83.90;;;;;;5041357;28;20030;-57
2023/03/20 12:34:33;;;;;;;35.42;4.15;;;15.30;84.00;;;;;;5042358;28;20061;-57
2023/03/20 12:36:59;;;;;;;32.45;4.60;;;15.30;83.80;;;;;;5043385;28;20026;-54
2023/03/20 12:39:35;;;;;;;40.97;5.55;;;15.30;83.60;;;;;;5026835;28;20449;-55
2023/03/20 12:42:19;;;;;;;23.17;4.38;;;15.40;83.60;;;;;;5022673;28;20034;-55
2023/03/20 12:45:03;;;;;;;32.17;4.07;;;15.40;83.40;;;;;;5028250;28;20022;-54
2023/03/20 12:47:41;;;;;;;33.08;3.75;;;15.40;83.30;;;;;;5075628;28;20030;-54
2023/03/20 12:50:16;;;;;;;24.50;3.35;;;15.40;82.90;;;;;;5042727;28;20093;-54
2023/03/20 12:53:00;;;;;;;26.77;3.08;;;15.50;82.80;;;;;;5042696;28;20037;-54